createdAt,value
2017-01-24T00:00:01.408Z,4.3
2017-01-24T00:05:02.064Z,4.3
2017-01-24T00:10:01.884Z,4.3
2017-01-24T00:15:01.808Z,4.3
2017-01-24T00:20:02.089Z,4.3
2017-01-24T00:25:01.271Z,4.3
2017-01-24T00:30:02.023Z,4.3
2017-01-24T00:35:01.828Z,4.3
2017-01-24T00:40:01.959Z,4.3
2017-01-24T00:45:01.310Z,4.3
2017-01-24T00:50:01.916Z,4.3
2017-01-24T00:55:01.342Z,4.3
2017-01-24T01:00:01.892Z,4.2
2017-01-24T01:05:01.867Z,4.2
2017-01-24T01:10:01.778Z,4.3
2017-01-24T01:15:02.109Z,4.3
2017-01-24T01:20:02.066Z,4.2
2017-01-24T01:25:01.841Z,4.2
2017-01-24T01:30:01.807Z,4.3
2017-01-24T01:35:01.834Z,4.3
2017-01-24T01:40:01.765Z,4.2
2017-01-24T01:45:01.604Z,4.2
2017-01-24T01:50:01.394Z,4.2
2017-01-24T01:55:01.512Z,4.2
2017-01-24T02:00:01.395Z,4.2
2017-01-24T02:05:01.354Z,4.2
2017-01-24T02:10:01.210Z,4.2
2017-01-24T02:15:01.545Z,4.2
2017-01-24T02:20:01.194Z,4.1
2017-01-24T02:25:01.942Z,4.1
2017-01-24T02:30:01.805Z,4.2
2017-01-24T02:35:01.484Z,4.2
2017-01-24T02:40:01.259Z,4.2
2017-01-24T02:45:02.084Z,4.2
2017-01-24T02:50:01.540Z,4.2
2017-01-24T02:55:01.201Z,4.2
2017-01-24T03:00:01.339Z,4.1
2017-01-24T03:05:01.399Z,4.1
2017-01-24T03:10:01.477Z,4.1
2017-01-24T03:15:01.371Z,4.2
2017-01-24T03:20:01.868Z,4.3
2017-01-24T03:25:01.627Z,4.2
2017-01-24T03:30:01.378Z,4.2
2017-01-24T03:35:02.249Z,4.2
2017-01-24T03:40:02.057Z,4.2
2017-01-24T03:45:01.357Z,4.2
2017-01-24T03:50:02.148Z,4.2
2017-01-24T03:55:01.870Z,4.3
2017-01-24T04:00:01.926Z,4.2
2017-01-24T04:05:01.370Z,4.2
2017-01-24T04:10:02.046Z,4.2
2017-01-24T04:15:02.019Z,4.3
2017-01-24T04:20:01.544Z,4.3
2017-01-24T04:25:01.394Z,4.3
2017-01-24T04:30:01.356Z,4.3
2017-01-24T04:35:01.629Z,4.3
2017-01-24T04:40:01.639Z,4.3
2017-01-24T04:45:01.996Z,4.3
2017-01-24T04:50:01.777Z,4.3
2017-01-24T04:55:02.010Z,4.3
2017-01-24T05:00:02.018Z,4.3
2017-01-24T05:05:02.041Z,4.3
2017-01-24T05:10:01.792Z,4.3
2017-01-24T05:15:01.998Z,4.3
2017-01-24T05:20:01.676Z,4.3
2017-01-24T05:25:01.468Z,4.3
2017-01-24T05:30:01.975Z,4.3
2017-01-24T05:35:01.882Z,4.4
2017-01-24T05:40:01.857Z,4.3
2017-01-24T05:45:02.165Z,4.4
2017-01-24T05:50:01.882Z,4.4
2017-01-24T05:55:02.121Z,4.4
2017-01-24T06:00:01.529Z,4.4
2017-01-24T06:05:01.591Z,4.4
2017-01-24T06:10:01.460Z,4.4
2017-01-24T06:15:02.095Z,4.4
2017-01-24T06:20:01.998Z,4.4
2017-01-24T06:25:01.516Z,4.4
2017-01-24T06:30:01.805Z,4.4
2017-01-24T06:35:01.637Z,4.4
2017-01-24T06:40:01.372Z,4.4
2017-01-24T06:45:01.876Z,4.4
2017-01-24T06:50:01.757Z,4.4
2017-01-24T06:55:01.299Z,4.4
2017-01-24T07:00:01.612Z,4.4
2017-01-24T07:05:01.787Z,4.4
2017-01-24T07:10:01.430Z,4.4
2017-01-24T07:15:02.038Z,4.4
2017-01-24T07:20:02.084Z,4.4
2017-01-24T07:25:01.241Z,4.4
2017-01-24T07:30:02.121Z,4.4
2017-01-24T07:35:01.328Z,4.4
2017-01-24T07:40:01.334Z,4.4
2017-01-24T07:45:01.901Z,4.4
2017-01-24T07:50:01.769Z,4.4
2017-01-24T07:55:01.493Z,4.5
2017-01-24T08:00:01.258Z,4.5
2017-01-24T08:05:01.778Z,4.4
2017-01-24T08:10:01.330Z,4.5
2017-01-24T08:15:01.682Z,4.5
2017-01-24T08:20:01.945Z,4.5
2017-01-24T08:25:01.225Z,4.5
2017-01-24T08:30:01.621Z,4.4
2017-01-24T08:35:01.294Z,4.4
2017-01-24T08:40:02.039Z,4.4
2017-01-24T08:45:01.207Z,4.4
2017-01-24T08:50:01.897Z,4.4
2017-01-24T08:55:01.468Z,4.4
2017-01-24T09:00:01.700Z,4.4
2017-01-24T09:05:01.705Z,4.5
2017-01-24T09:10:01.629Z,4.5
2017-01-24T09:15:01.499Z,4.4
2017-01-24T09:20:01.850Z,4.4
2017-01-24T09:25:01.893Z,4.5
2017-01-24T09:30:01.326Z,4.5
2017-01-24T09:35:02.195Z,4.5
2017-01-24T09:40:01.860Z,4.5
2017-01-24T09:45:01.345Z,4.5
2017-01-24T09:50:01.231Z,4.6
2017-01-24T09:55:01.803Z,4.5
2017-01-24T10:00:01.981Z,4.5
2017-01-24T10:05:01.519Z,4.5
2017-01-24T10:10:01.394Z,4.6
2017-01-24T10:15:01.603Z,4.6
2017-01-24T10:20:01.589Z,4.5
2017-01-24T10:25:01.624Z,4.5
2017-01-24T10:30:01.261Z,4.6
2017-01-24T10:35:02.116Z,4.6
2017-01-24T10:40:01.876Z,4.6
2017-01-24T10:45:01.372Z,4.5
2017-01-24T10:50:01.433Z,4.6
2017-01-24T10:55:02.025Z,4.6
2017-01-24T11:00:01.236Z,4.6
2017-01-24T11:05:01.693Z,4.5
2017-01-24T11:10:01.732Z,4.5
2017-01-24T11:15:01.469Z,4.6
2017-01-24T11:20:02.145Z,4.7
2017-01-24T11:25:01.224Z,4.7
2017-01-24T11:30:01.477Z,4.6
2017-01-24T11:35:01.423Z,4.6
2017-01-24T11:40:01.175Z,4.7
2017-01-24T11:45:01.779Z,4.6
2017-01-24T11:50:01.577Z,4.6
2017-01-24T11:55:02.153Z,4.6
2017-01-24T12:00:01.504Z,4.7
2017-01-24T12:05:01.481Z,4.7
2017-01-24T12:10:01.450Z,4.7
2017-01-24T12:15:01.798Z,4.7
2017-01-24T12:20:01.553Z,4.7
2017-01-24T12:25:01.578Z,4.7
2017-01-24T12:30:01.847Z,4.7
2017-01-24T12:35:01.758Z,4.8
2017-01-24T12:40:01.560Z,4.7
2017-01-24T12:45:01.248Z,4.8
2017-01-24T12:50:02.069Z,4.7
2017-01-24T12:55:01.924Z,4.7
2017-01-24T13:00:01.430Z,4.7
2017-01-24T13:05:01.729Z,4.7
2017-01-24T13:10:01.324Z,4.7
2017-01-24T13:15:01.873Z,4.7
2017-01-24T13:20:01.946Z,4.7
2017-01-24T13:25:01.172Z,4.7
2017-01-24T13:30:01.706Z,4.7
2017-01-24T13:35:01.584Z,4.7
2017-01-24T13:40:01.422Z,4.8
2017-01-24T13:45:01.989Z,4.9
2017-01-24T13:50:01.752Z,4.8
2017-01-24T13:55:01.495Z,4.7
2017-01-24T14:00:01.907Z,4.8
2017-01-24T14:05:01.771Z,4.8
2017-01-24T14:10:01.784Z,4.8
2017-01-24T14:15:01.252Z,4.8
2017-01-24T14:20:01.936Z,4.9
2017-01-24T14:25:02.101Z,4.9
2017-01-24T14:30:01.356Z,4.9
2017-01-24T14:35:01.546Z,4.9
2017-01-24T14:40:01.659Z,4.9
2017-01-24T14:45:01.685Z,4.9
2017-01-24T14:50:02.078Z,4.9
2017-01-24T14:55:01.718Z,4.9
2017-01-24T15:00:01.423Z,4.9
2017-01-24T15:05:01.604Z,4.9
2017-01-24T15:10:01.527Z,4.9
2017-01-24T15:15:01.852Z,4.9
2017-01-24T15:20:01.207Z,4.9
2017-01-24T15:25:02.138Z,4.9
2017-01-24T15:30:01.286Z,4.9
2017-01-24T15:35:01.896Z,4.9
2017-01-24T15:40:01.573Z,4.9
2017-01-24T15:45:02.152Z,4.9
2017-01-24T15:50:01.542Z,4.9
2017-01-24T15:55:01.195Z,4.9
2017-01-24T16:00:01.464Z,4.9
2017-01-24T16:05:02.129Z,4.9
2017-01-24T16:10:01.877Z,4.9
2017-01-24T16:15:01.301Z,4.9
2017-01-24T16:20:01.771Z,4.8
2017-01-24T16:25:01.930Z,4.9
2017-01-24T16:30:02.144Z,4.9
2017-01-24T16:35:01.593Z,4.9
2017-01-24T16:40:01.310Z,4.8
2017-01-24T16:45:02.096Z,4.8
2017-01-24T16:50:01.471Z,4.8
2017-01-24T16:55:02.054Z,4.8
2017-01-24T17:00:01.260Z,4.8
2017-01-24T17:05:01.696Z,4.7
2017-01-24T17:10:01.521Z,4.7
2017-01-24T17:15:01.820Z,4.7
2017-01-24T17:20:01.647Z,4.7
2017-01-24T17:25:01.695Z,4.7
2017-01-24T17:30:02.139Z,4.7
2017-01-24T17:35:02.213Z,4.7
2017-01-24T17:40:01.662Z,4.7
2017-01-24T17:45:01.494Z,4.6
2017-01-24T17:50:01.985Z,4.6
2017-01-24T17:55:01.341Z,4.6
2017-01-24T18:00:01.629Z,4.6
2017-01-24T18:05:01.999Z,4.5
2017-01-24T18:10:02.120Z,4.6
2017-01-24T18:15:01.582Z,4.6
2017-01-24T18:20:01.903Z,4.6
2017-01-24T18:25:01.686Z,4.5
2017-01-24T18:30:01.393Z,4.5
2017-01-24T18:35:01.441Z,4.5
2017-01-24T18:40:02.498Z,4.5
2017-01-24T18:45:01.176Z,4.5
2017-01-24T18:50:01.773Z,4.5
2017-01-24T18:55:01.407Z,4.5
2017-01-24T19:00:02.052Z,4.5
2017-01-24T19:05:01.660Z,4.5
2017-01-24T19:10:02.060Z,4.4
2017-01-24T19:15:01.441Z,4.4
2017-01-24T19:20:01.979Z,4.5
2017-01-24T19:25:02.256Z,4.5
2017-01-24T19:30:01.263Z,4.5
2017-01-24T19:35:01.593Z,4.5
2017-01-24T19:40:02.137Z,4.5
2017-01-24T19:45:01.246Z,4.5
2017-01-24T19:50:02.165Z,4.5
2017-01-24T19:55:01.802Z,4.5
2017-01-24T20:00:01.990Z,4.5
2017-01-24T20:05:02.235Z,4.5
2017-01-24T20:10:01.300Z,4.5
2017-01-24T20:15:01.388Z,4.5
2017-01-24T20:20:01.756Z,4.5
2017-01-24T20:25:02.086Z,4.5
2017-01-24T20:30:01.183Z,4.5
2017-01-24T20:35:01.616Z,4.4
2017-01-24T20:40:01.649Z,4.4
2017-01-24T20:45:01.678Z,4.5
2017-01-24T20:50:02.136Z,4.5
2017-01-24T20:55:01.658Z,4.5
2017-01-24T21:00:01.577Z,4.5
2017-01-24T21:05:01.760Z,4.5
2017-01-24T21:10:01.560Z,4.5
2017-01-24T21:15:01.332Z,4.5
2017-01-24T21:20:01.773Z,4.4
2017-01-24T21:25:01.967Z,4.4
2017-01-24T21:30:01.720Z,4.4
2017-01-24T21:35:01.592Z,4.5
2017-01-24T21:40:01.717Z,4.4
2017-01-24T21:45:01.470Z,4.4
2017-01-24T21:50:01.665Z,4.4
2017-01-24T21:55:02.003Z,4.4
2017-01-24T22:00:01.612Z,4.4
2017-01-24T22:05:01.466Z,4.4
2017-01-24T22:10:02.155Z,4.4
2017-01-24T22:15:01.910Z,4.4
2017-01-24T22:20:01.661Z,4.4
2017-01-24T22:25:02.175Z,4.4
2017-01-24T22:30:02.047Z,4.4
2017-01-24T22:35:01.633Z,4.4
2017-01-24T22:40:01.768Z,4.4
2017-01-24T22:45:01.393Z,4.3
2017-01-24T22:50:01.567Z,4.3
2017-01-24T22:55:01.960Z,4.3
2017-01-24T23:00:01.506Z,4.3
2017-01-24T23:05:02.112Z,4.3
2017-01-24T23:10:01.197Z,4.3
2017-01-24T23:15:02.334Z,4.3
2017-01-24T23:20:01.292Z,4.3
2017-01-24T23:25:01.453Z,4.3
2017-01-24T23:30:01.343Z,4.3
2017-01-24T23:35:02.033Z,4.3
2017-01-24T23:40:01.797Z,4.3
2017-01-24T23:45:01.756Z,4.3
2017-01-24T23:50:01.219Z,4.3
2017-01-24T23:55:01.974Z,4.3
